x

South Moresby (46147) Wave Buoy

11:00am - Sat 25th Apr 2015 All times are PDT. -7 hours from GMT.

  • Sig Wave height 4.3ft
  • Peak Period 9s
  • Wind
    2mph, 7mph gusts
  • Sea Temp 49°f
  • Air Temp 50°f
  • Sea Pressure 1013.3mb
  • South Moresby
  • South Moresby

More Historic Weather Station data

Upgrade to MSW Pro to gain access to the past 30 days of data for over 8000 Wavebouys and Weather Stations around the globe.

Join Pro

Comparision Forecast

View Surf forecast
   
Sat 04/25 11:00am 4.5ft 9s 2 7 mph 1013.3mb 49f 50f
10:00am 4.5ft 9s 7 9 mph 1013mb 49f 48f
9:00am 4.5ft 10s 4 7 mph 1013.3mb 49f 48f
8:00am 4.5ft 9s 7
mph
1013.2mb 49f 48f
7:00am 4.5ft 9s 9 11 mph 1013.2mb 49f 47f
6:00am 4.5ft 9s 4 11 mph 1013mb 49f 48f
5:00am 5ft 10s 9 11 mph 1012.6mb 49f 47f
4:00am 5ft 10s 9 13 mph 1012.6mb 49f 47f
3:00am 5.5ft 10s 11 13 mph 1012.4mb 49f 48f
2:00am 6ft 10s 7 9 mph 1012mb 49f 48f
1:00am 6ft 10s 9 11 mph 1011.9mb 49f 48f
12:00am 6ft 10s 9 13 mph 1011.5mb 49f 49f
Fri 04/24 11:00pm 6ft 10s 18 20 mph 1011.4mb 49f 49f
10:00pm 5.5ft 10s 18 22 mph 1011.1mb 49f 49f
9:00pm 6ft 10s 20 22 mph 1010.3mb 49f 49f
8:00pm 6ft 10s 20 25 mph 1009.9mb 49f 49f
7:00pm 6.5ft 10s 20 22 mph 1009.8mb 49f 49f
6:00pm 6ft 10s 18 22 mph 1009.6mb 49f 48f
5:00pm 6.5ft 10s 18 20 mph 1009.5mb 49f 48f
4:00pm 6.5ft 11s 16 20 mph 1009.3mb 49f 48f
3:00pm 6.5ft 11s 18 20 mph 1009.1mb 49f 49f
2:00pm 7ft 11s 16 20 mph 1008.7mb 49f 48f
1:00pm 7.5ft 11s 16 20 mph 1008.5mb 49f 48f
12:00pm 7.5ft 12s 16 18 mph 1008.3mb 49f 47f
11:00am 8ft 11s 18 20 mph 1008mb 49f 47f
10:00am 7.5ft 11s 16 18 mph 1007.7mb 49f 47f
9:00am 8ft 12s 16 18 mph 1007.3mb 49f 47f
8:00am 8.5ft 12s 16 18 mph 1007.2mb 49f 47f
7:00am 9ft 12s 18 20 mph 1007mb 49f 47f
6:00am 9ft 11s 16 20 mph 1006.7mb 49f 47f
5:00am 9ft 12s 13 18 mph 1006.6mb 49f 47f
4:00am 9ft 12s 11 16 mph 1006.4mb 49f 47f
3:00am 9.5ft 12s 11 16 mph 1006.4mb 48f 47f
2:00am 12ft 13s 9 11 mph 1006.6mb 49f 46f
1:00am 11ft 12s 9 13 mph 1006.8mb 49f 47f
12:00am 11.5ft 13s 9 13 mph 1006.9mb 49f 46f
Thu 04/23 11:00pm 11.5ft 14s 9 13 mph 1007mb 49f 46f
10:00pm 12ft 14s 7 11 mph 1007mb 49f 46f
9:00pm 11ft 14s 7 9 mph 1006.4mb 49f 46f
8:00pm 12ft 13s 7 11 mph 1005.8mb 49f 46f
7:00pm 13ft 14s 9 13 mph 1005.5mb 49f 46f
6:00pm 13ft 15s 7 11 mph 1005.4mb 49f 46f
5:00pm 13.5ft 15s 9 13 mph 1005.3mb 49f 46f
4:00pm 15ft 14s 7 13 mph 1005.2mb 49f 45f
3:00pm 15ft 14s 7 13 mph 1005.3mb 49f 44f
2:00pm 13ft 10s 7 11 mph 1005.2mb 49f 43f
1:00pm 12ft 11s 13 18 mph 1005.1mb 49f 42f
12:00pm 13ft 10s 4 9 mph 1004.8mb 49f 45f
11:00am 11ft 10s 7 11 mph 1004.7mb 49f 44f
10:00am 10ft 10s 9 11 mph 1004.6mb 49f 44f
9:00am 10.5ft 10s 9 13 mph 1004.5mb 49f 46f
8:00am 10ft 8s 11 13 mph 1004.4mb 49f 46f
7:00am 10ft 8s 16 20 mph 1004.3mb 49f 46f
6:00am 10ft 9s 9 13 mph 1004.3mb 49f 46f
5:00am 10.5ft 9s 20 25 mph 1004.2mb 49f 45f
4:00am 10ft 9s 20 25 mph 1004.1mb 49f 46f
3:00am 11ft 8s 20 25 mph 1004.1mb 49f 47f
2:00am 10.5ft 9s 22 27 mph 1003.9mb 49f 47f
1:00am 12ft 9s 25 31 mph 1003.6mb 49f 46f
12:00am 12ft 9s 22 29 mph 1003.5mb 49f 45f
Wed 04/22 11:00pm 12ft 8s 4 9 mph 1003.4mb 49f 46f
10:00pm 13ft 8s 22 38 mph 1003.6mb 49f 44f
9:00pm 12ft 7s 36 43 mph 1003.9mb 49f 46f
8:00pm 11.5ft 6s 36 43 mph 1005.8mb 49f 46f
7:00pm 9ft 6s 31 43 mph 1007.9mb 49f 46f
6:00pm 7ft 5s 31 38 mph 1010mb 49f 46f
5:00pm 7ft 11s 29 36 mph 1012mb 49f 46f
4:00pm 7ft 11s 27 31 mph 1014.1mb 49f 46f
3:00pm 7ft 11s 22 27 mph 1015.6mb 49f 46f
2:00pm 8ft 10s 20 27 mph 1017.1mb 49f 45f
1:00pm 8ft 10s 16 20 mph 1018.2mb 49f 46f
12:00pm 8ft 11s 13 20 mph 1019.2mb 49f 45f
11:00am 8.5ft 11s 11 13 mph 1020.2mb 49f 46f
10:00am 8ft 11s 4 7 mph 1020.8mb 49f 46f
9:00am 8ft 11s 13 18 mph 1021.4mb 49f 45f
8:00am 7ft 11s 4 9 mph 1021.6mb 48f 46f
7:00am 7ft 12s 9 11 mph 1021.7mb 49f 45f
6:00am 7ft 11s 13 16 mph 1021.9mb 49f 45f
5:00am 7ft 12s 16 18 mph 1021.9mb 49f 46f
4:00am 7ft 12s 18 22 mph 1022mb 49f 46f
3:00am 8ft 11s 18 22 mph 1022.1mb 49f 46f
2:00am 8.5ft 12s 20 25 mph 1022.3mb 49f 46f
1:00am 8ft 12s 22 27 mph 1022.2mb 49f 46f
12:00am 9ft 12s 20 27 mph 1022.4mb 49f 46f
Tue 04/21 11:00pm 8ft 12s 22 27 mph 1022.3mb 49f 46f
10:00pm 8ft 13s 25 29 mph 1022.6mb 49f 46f
9:00pm 8.5ft 12s 25 29 mph 1022.4mb 49f 46f
8:00pm 8.5ft 12s 22 27 mph 1022.2mb 49f 47f